Time;durP1;ratioP1;P1;durP2;ratioP2;P2;SDS_P1;SDS_P2;PMS_P1;PMS_P2;Temp;Humidity;BMP_temperature;BMP_pressure;BME280_temperature;BME280_humidity;BME280_pressure;Samples;Min_cycle;Max_cycle;Signal;HPM_P1;HPM_P2
2022/12/13 05:30:32;;;;;;;;;27.67;24.00;;;;;1.96;51.50;100174.91;5070815;27;46631;-64
2022/12/13 05:32:58;;;;;;;;;29.00;23.25;;;;;2.01;51.95;100173.06;5015240;28;45336;-63
2022/12/13 05:35:23;;;;;;;;;24.25;22.25;;;;;1.99;51.18;100179.25;5015810;28;45444;-64
2022/12/13 05:37:49;;;;;;;;;27.67;23.33;;;;;1.97;51.48;100179.28;5015439;28;45488;-65
2022/12/13 05:40:14;;;;;;;;;31.00;24.00;;;;;1.98;51.53;100181.03;5014539;28;46150;-64
2022/12/13 05:42:40;;;;;;;;;26.00;24.00;;;;;1.96;51.82;100179.34;5013530;28;45528;-65
2022/12/13 05:45:07;;;;;;;;;21.33;21.33;;;;;1.93;51.38;100188.19;5015363;28;45382;-65
2022/12/13 05:47:32;;;;;;;;;24.00;21.67;;;;;1.92;51.42;100198.78;4996231;28;46721;-65
2022/12/13 05:49:57;;;;;;;;;27.33;23.33;;;;;1.92;51.47;100197.03;5014838;28;46298;-64
2022/12/13 05:52:23;;;;;;;;;36.00;26.33;;;;;1.97;51.24;100187.22;5014849;28;45452;-64
2022/12/13 05:54:53;;;;;;;;;32.25;27.75;;;;;1.86;51.37;100173.38;5015248;28;45286;-67
2022/12/13 05:57:19;;;;;;;;;25.75;25.75;;;;;1.96;51.10;100188.13;5014864;28;45366;-65
2022/12/13 05:59:44;;;;;;;;;37.00;21.75;;;;;2.01;51.52;100190.69;5016275;28;45505;-66
2022/12/13 06:02:09;;;;;;;;;34.50;27.25;;;;;2.00;51.33;100197.75;5014921;28;45422;-65
2022/12/13 06:04:35;;;;;;;;;24.67;22.67;;;;;1.97;51.42;100195.16;5015523;28;45384;-66
2022/12/13 06:07:01;;;;;;;;;25.00;25.00;;;;;1.93;51.34;100182.91;5015008;28;45428;-65
2022/12/13 06:09:26;;;;;;;;;25.50;22.25;;;;;1.96;51.73;100201.34;5014547;28;46023;-65
2022/12/13 06:11:52;;;;;;;;;28.33;22.00;;;;;2.06;51.64;100216.13;5014903;28;45296;-66
2022/12/13 06:14:17;;;;;;;;;26.33;25.00;;;;;2.00;51.25;100216.25;5015501;28;45482;-66
2022/12/13 06:16:42;;;;;;;;;33.00;24.33;;;;;2.02;50.94;100222.38;5014804;28;45396;-70
2022/12/13 06:19:09;;;;;;;;;25.33;18.67;;;;;2.02;51.83;100219.75;5015090;28;45233;-70
2022/12/13 06:21:35;;;;;;;;;31.00;24.33;;;;;2.01;51.48;100218.00;5015180;28;45448;-75
2022/12/13 06:24:00;;;;;;;;;30.67;25.33;;;;;1.94;51.40;100205.81;4996986;28;45416;-69
2022/12/13 06:26:25;;;;;;;;;25.67;22.33;;;;;2.02;51.38;100227.66;5014599;28;45404;-68
2022/12/13 06:28:51;;;;;;;;;24.00;21.00;;;;;1.95;51.80;100209.31;5014959;28;45463;-68
2022/12/13 06:31:17;;;;;;;;;29.25;28.25;;;;;2.04;51.56;100225.00;5027173;28;45335;-67
2022/12/13 06:33:42;;;;;;;;;30.67;23.00;;;;;2.00;51.30;100218.03;5054925;28;46929;-70
2022/12/13 06:36:08;;;;;;;;;28.67;24.33;;;;;2.08;51.72;100216.09;5054661;28;45267;-70
2022/12/13 06:42:16;;;;;;;;;30.67;24.67;;;;;1.99;51.46;100203.06;5053723;28;46106;-70
2022/12/13 06:44:42;;;;;;;;;33.00;26.67;;;;;1.89;51.60;100186.50;5036483;28;46245;-72
2022/12/13 06:47:08;;;;;;;;;21.67;21.67;;;;;2.05;51.63;100203.78;5037464;28;45964;-70
2022/12/13 06:49:33;;;;;;;;;21.67;21.67;;;;;2.13;51.45;100207.16;5036243;28;46197;-73
2022/12/13 06:51:59;;;;;;;;;30.67;29.33;;;;;2.04;51.57;100188.84;5060082;28;45374;-70
2022/12/13 06:54:24;;;;;;;;;34.67;27.67;;;;;2.08;51.63;100202.88;5054574;28;45609;-68
2022/12/13 06:56:49;;;;;;;;;26.67;26.67;;;;;2.08;51.76;100198.47;5054169;28;45562;-68
2022/12/13 06:59:15;;;;;;;;;19.67;18.33;;;;;2.05;51.73;100197.63;5056237;28;46109;-68
2022/12/13 07:01:40;;;;;;;;;26.67;22.67;;;;;1.99;51.35;100201.28;5054480;28;45344;-66
2022/12/13 07:04:07;;;;;;;;;26.00;19.33;;;;;1.96;51.94;100193.41;5054126;28;45315;-66
2022/12/13 07:06:33;;;;;;;;;32.33;26.00;;;;;1.87;52.07;100178.59;5051209;28;46018;-68
2022/12/13 07:08:58;;;;;;;;;38.67;29.00;;;;;1.87;52.18;100183.03;5048611;28;46170;-68
2022/12/13 07:11:29;;;;;;;;;32.00;26.00;;;;;1.85;51.75;100182.19;5053153;28;45807;-66
2022/12/13 07:13:55;;;;;;;;;22.00;22.00;;;;;1.79;52.42;100192.84;5053179;28;45347;-67
2022/12/13 07:16:22;;;;;;;;;37.00;27.00;;;;;1.75;52.37;100194.72;5056864;28;45978;-68
2022/12/13 07:18:53;;;;;;;;;28.67;24.00;;;;;1.70;52.44;100191.25;5058691;28;45363;-70
2022/12/13 07:21:18;;;;;;;;;27.00;22.67;;;;;1.72;52.91;100199.16;5054512;28;45402;-68
2022/12/13 07:23:43;;;;;;;;;42.00;31.67;;;;;1.73;52.60;100199.13;5054113;28;45592;-68
2022/12/13 07:26:09;;;;;;;;;31.00;28.67;;;;;1.68;52.29;100208.94;5054582;28;45447;-68
2022/12/13 07:28:35;;;;;;;;;34.00;29.33;;;;;1.67;52.53;100212.47;5053654;28;45824;-67
2022/12/13 07:31:06;;;;;;;;;33.00;29.67;;;;;1.68;52.68;100219.50;5054051;28;45542;-70
2022/12/13 07:33:31;;;;;;;;;27.33;21.00;;;;;1.60;52.73;100205.56;5054100;28;45464;-68
2022/12/13 07:36:12;;;;;;;;;30.67;26.33;;;;;1.58;52.32;100203.84;5035993;28;45423;-68
2022/12/13 07:38:38;;;;;;;;;26.33;20.33;;;;;1.53;52.63;100206.59;5053943;28;46424;-67
2022/12/13 07:41:05;;;;;;;;;31.67;27.00;;;;;1.48;52.65;100193.44;5054425;28;45520;-69
2022/12/13 07:43:32;;;;;;;;;34.67;27.67;;;;;1.63;52.18;100215.19;5052489;28;46428;-72
2022/12/13 07:45:59;;;;;;;;;32.00;31.67;;;;;1.55;52.23;100217.09;5056769;28;45355;-69
2022/12/13 07:48:25;;;;;;;;;19.67;18.33;;;;;1.44;52.52;100199.69;5039219;28;46810;-69
2022/12/13 07:50:51;;;;;;;;;24.00;20.67;;;;;1.49;52.52;100218.97;5050965;28;45416;-69
2022/12/13 07:53:16;;;;;;;;;35.00;34.67;;;;;1.59;52.23;100243.44;5057415;28;45198;-68
2022/12/13 07:55:42;;;;;;;;;32.00;30.33;;;;;1.56;52.52;100251.41;5057361;28;45243;-70
2022/12/13 07:58:13;;;;;;;;;34.00;30.33;;;;;1.47;52.12;100235.72;5058079;28;45277;-79
2022/12/13 08:00:41;;;;;;;;;24.00;23.67;;;;;1.49;52.55;100249.78;5059383;28;45450;-73
2022/12/13 08:03:07;;;;;;;;;32.00;24.67;;;;;1.50;52.83;100256.81;5041143;28;45474;-77
2022/12/13 08:05:34;;;;;;;;;30.00;30.00;;;;;1.48;52.91;100258.59;5058759;28;45868;-68
2022/12/13 08:08:00;;;;;;;;;37.33;33.33;;;;;1.53;52.98;100262.91;5058633;28;45450;-70
2022/12/13 08:10:27;;;;;;;;;35.00;30.33;;;;;1.51;52.86;100258.56;5059003;28;45378;-72
2022/12/13 08:12:52;;;;;;;;;36.00;27.33;;;;;1.52;52.88;100261.19;5040332;28;45447;-71
2022/12/13 08:15:18;;;;;;;;;40.33;31.67;;;;;1.47;52.87;100254.22;5057584;28;45251;-71
2022/12/13 08:17:43;;;;;;;;;29.00;27.00;;;;;1.46;52.85;100261.25;5065975;28;45447;-71
2022/12/13 08:20:09;;;;;;;;;34.67;30.00;;;;;1.41;52.52;100244.63;5060559;28;45367;-71
2022/12/13 08:22:34;;;;;;;;;32.67;27.33;;;;;1.51;52.94;100263.84;5057246;28;45374;-71
2022/12/13 08:25:00;;;;;;;;;44.33;34.33;;;;;1.45;52.65;100253.34;5056636;28;45544;-71
2022/12/13 08:27:26;;;;;;;;;30.00;29.67;;;;;1.55;52.69;100262.00;5056668;28;45514;-69
2022/12/13 08:29:52;;;;;;;;;36.33;34.00;;;;;1.59;52.46;100263.72;5056587;28;45205;-71
2022/12/13 08:32:17;;;;;;;;;36.33;31.33;;;;;1.55;52.56;100264.63;5056564;28;45354;-70
2022/12/13 08:34:42;;;;;;;;;31.33;29.67;;;;;1.42;52.27;100251.66;5056664;28;45509;-70
2022/12/13 08:37:08;;;;;;;;;46.00;37.67;;;;;1.50;52.62;100267.38;5056393;28;45358;-70
2022/12/13 08:39:35;;;;;;;;;37.33;36.67;;;;;1.50;52.10;100278.81;5056691;28;45359;-71
2022/12/13 08:42:02;;;;;;;;;37.00;35.67;;;;;1.48;52.03;100271.81;5055938;28;45440;-69
2022/12/13 08:44:28;;;;;;;;;30.33;27.00;;;;;1.42;52.56;100262.22;5056324;28;45518;-70
2022/12/13 08:46:53;;;;;;;;;38.00;33.00;;;;;1.43;52.69;100271.03;5038444;28;47094;-70
2022/12/13 08:49:18;;;;;;;;;53.33;40.00;;;;;1.47;52.53;100270.94;5055936;28;45311;-70
2022/12/13 08:51:44;;;;;;;;;34.33;32.00;;;;;1.49;52.21;100268.28;5049323;28;45497;-71
2022/12/13 08:54:09;;;;;;;;;27.67;26.33;;;;;1.52;52.12;100269.09;5056435;28;45470;-70
2022/12/13 08:56:35;;;;;;;;;37.33;32.67;;;;;1.46;52.32;100271.81;5055022;28;45975;-70
2022/12/13 08:59:00;;;;;;;;;37.33;34.33;;;;;1.48;52.07;100283.25;5056308;28;45357;-71
2022/12/13 09:01:25;;;;;;;;;37.33;31.67;;;;;1.45;52.11;100279.78;5057819;28;45316;-70
2022/12/13 09:03:51;;;;;;;;;37.67;32.67;;;;;1.49;52.37;100273.56;5056312;28;45328;-70
2022/12/13 09:06:16;;;;;;;;;42.33;36.33;;;;;1.52;52.31;100270.88;5056720;28;46276;-72
2022/12/13 09:08:43;;;;;;;;;39.67;32.00;;;;;1.53;52.43;100252.31;5056276;28;45230;-71
2022/12/13 09:11:09;;;;;;;;;39.67;28.33;;;;;1.61;52.45;100254.88;5056467;28;45224;-70
2022/12/13 09:13:36;;;;;;;;;27.67;24.00;;;;;1.62;52.24;100243.38;5055857;28;45519;-71
2022/12/13 09:16:07;;;;;;;;;30.00;28.33;;;;;1.61;52.41;100248.72;5056251;28;46062;-70
2022/12/13 09:18:32;;;;;;;;;40.00;35.00;;;;;1.59;51.79;100248.72;5056198;28;45420;-70
2022/12/13 09:20:57;;;;;;;;;41.00;34.67;;;;;1.63;52.43;100250.41;5056576;28;45582;-70
2022/12/13 09:23:23;;;;;;;;;43.00;35.33;;;;;1.56;52.08;100225.00;5055928;28;45477;-72
2022/12/13 09:25:53;;;;;;;;;41.00;33.67;;;;;1.61;52.11;100236.38;5056080;28;45688;-70
2022/12/13 09:28:19;;;;;;;;;32.00;32.00;;;;;1.65;52.60;100242.47;5055573;28;45577;-70
2022/12/13 09:30:44;;;;;;;;;50.33;37.33;;;;;1.64;51.86;100251.28;5055776;28;45268;-71
2022/12/13 09:33:09;;;;;;;;;33.00;30.67;;;;;1.70;52.11;100264.41;5055732;28;45297;-69
2022/12/13 09:35:37;;;;;;;;;39.33;34.33;;;;;1.68;52.00;100250.34;5055913;28;45314;-72
2022/12/13 09:38:03;;;;;;;;;39.00;32.33;;;;;1.73;51.56;100265.19;5055964;28;45251;-70
2022/12/13 09:40:29;;;;;;;;;39.00;32.33;;;;;1.76;51.92;100257.22;5055965;28;45246;-70
2022/12/13 09:42:56;;;;;;;;;28.00;27.00;;;;;1.80;51.71;100258.91;5055398;28;45323;-70
2022/12/13 09:45:23;;;;;;;;;40.00;30.33;;;;;1.80;51.29;100250.97;5055715;28;45239;-69
2022/12/13 09:47:51;;;;;;;;;39.00;34.00;;;;;1.84;51.09;100254.44;5055618;28;45490;-70
2022/12/13 09:50:23;;;;;;;;;30.67;25.33;;;;;1.84;50.93;100252.69;5052846;28;45361;-71
2022/12/13 09:52:48;;;;;;;;;42.67;36.00;;;;;1.78;51.43;100249.28;5052112;28;45455;-70
2022/12/13 09:55:28;;;;;;;;;34.00;27.33;;;;;1.79;51.02;100251.00;5055651;28;45442;-70
2022/12/13 09:57:54;;;;;;;;;28.33;24.33;;;;;1.71;51.32;100244.97;5055249;28;45297;-70
2022/12/13 10:00:24;;;;;;;;;42.00;37.67;;;;;1.78;51.73;100239.59;5055595;28;45431;-70
2022/12/13 10:02:57;;;;;;;;;35.00;34.00;;;;;1.70;51.01;100219.47;5055164;28;45456;-70
2022/12/13 10:05:34;;;;;;;;;52.67;37.67;;;;;1.85;51.07;100245.63;5055316;28;45354;-70
2022/12/13 10:08:14;;;;;;;;;34.33;33.67;;;;;1.85;51.24;100245.63;5036782;28;45356;-71
2022/12/13 10:10:40;;;;;;;;;38.67;33.00;;;;;1.90;51.02;100249.03;5055533;28;45469;-70
2022/12/13 10:13:06;;;;;;;;;44.33;39.00;;;;;1.93;50.90;100240.19;5055263;28;45263;-71
2022/12/13 10:15:33;;;;;;;;;38.33;38.33;;;;;1.88;50.52;100232.31;5054913;28;46123;-70
2022/12/13 10:18:03;;;;;;;;;35.67;24.00;;;;;1.99;50.89;100245.34;5055545;28;45343;-70
2022/12/13 10:20:29;;;;;;;;;38.33;33.67;;;;;2.05;50.87;100248.75;5055120;28;45287;-70
2022/12/13 10:22:54;;;;;;;;;38.33;34.00;;;;;2.06;50.72;100239.03;5055406;28;45357;-72
2022/12/13 10:25:53;;;;;;;;;38.33;34.67;;;;;2.11;50.73;100238.06;5054862;28;45454;-71
2022/12/13 10:28:26;;;;;;;;;40.00;36.67;;;;;2.17;50.12;100239.72;5054898;28;45396;-72
2022/12/13 10:30:52;;;;;;;;;37.67;34.67;;;;;2.14;49.43;100231.81;5054956;28;45347;-70
2022/12/13 10:33:22;;;;;;;;;40.00;34.00;;;;;2.15;50.24;100233.56;5054611;28;45349;-71
2022/12/13 10:36:02;;;;;;;;;33.67;29.33;;;;;2.18;50.53;100241.47;5054911;28;46129;-71
2022/12/13 10:38:33;;;;;;;;;35.00;30.33;;;;;2.17;50.32;100231.78;5054688;28;45476;-71
2022/12/13 10:40:58;;;;;;;;;37.33;33.00;;;;;2.28;50.04;100241.25;5054999;28;45427;-71
2022/12/13 10:43:32;;;;;;;;;37.00;34.67;;;;;2.28;49.97;100235.97;5054292;28;45573;-70
2022/12/13 10:46:02;;;;;;;;;36.67;32.67;;;;;2.36;49.98;100225.22;5054615;28;46250;-69
2022/12/13 10:48:38;;;;;;;;;54.67;38.33;;;;;2.46;49.82;100236.47;5055014;28;45354;-70
2022/12/13 10:51:09;;;;;;;;;44.33;36.00;;;;;2.50;49.57;100231.06;5047745;28;45434;-69
2022/12/13 10:53:39;;;;;;;;;39.67;35.00;;;;;2.49;49.27;100210.81;5055662;28;45280;-68
2022/12/13 10:56:05;;;;;;;;;47.00;36.67;;;;;2.56;49.17;100217.72;5037719;28;47246;-70
2022/12/13 10:58:40;;;;;;;;;36.33;31.00;;;;;2.64;49.32;100223.69;5037839;28;45341;-71
2022/12/13 11:01:08;;;;;;;;;37.00;31.67;;;;;2.68;49.29;100206.00;5037929;28;45571;-70
2022/12/13 11:03:34;;;;;;;;;45.67;42.33;;;;;2.72;48.93;100202.38;5056014;28;45252;-71
2022/12/13 11:06:14;;;;;;;;;40.33;29.67;;;;;2.87;48.46;100198.50;5055603;28;45248;-68
2022/12/13 11:08:40;;;;;;;;;34.33;30.00;;;;;2.97;47.99;100198.28;5055148;28;45351;-69
2022/12/13 11:11:08;;;;;;;;;33.33;30.00;;;;;3.11;47.81;100182.03;5055147;28;45425;-72
2022/12/13 11:13:40;;;;;;;;;41.33;37.00;;;;;3.22;47.15;100169.41;5054591;28;45176;-70
2022/12/13 11:16:26;;;;;;;;;30.33;30.00;;;;;3.35;47.57;100173.47;5054693;28;46039;-70
2022/12/13 11:18:56;;;;;;;;;45.67;33.67;;;;;3.45;47.10;100168.81;5053644;28;45557;-70
2022/12/13 11:21:27;;;;;;;;;45.33;34.33;;;;;3.56;46.54;100176.47;5054419;28;45350;-69
2022/12/13 11:23:59;;;;;;;;;27.00;26.33;;;;;3.56;46.56;100161.44;5054122;28;45553;-71
2022/12/13 11:26:27;;;;;;;;;46.00;37.00;;;;;3.74;46.40;100179.47;5035754;28;48698;-74
2022/12/13 11:29:14;;;;;;;;;38.00;36.33;;;;;3.77;46.17;100168.81;5035739;28;45431;-70
2022/12/13 11:32:02;;;;;;;;;40.00;34.00;;;;;3.88;46.67;100170.31;5053493;28;45415;-69
2022/12/13 11:35:08;;;;;;;;;40.33;34.00;;;;;3.98;46.05;100154.09;5054331;28;45349;-70
2022/12/13 11:37:39;;;;;;;;;39.67;33.33;;;;;4.02;45.78;100166.34;4972443;28;45435;-70
2022/12/13 11:40:13;;;;;;;;;42.00;33.25;;;;;4.04;45.90;100175.13;5040284;28;45240;-69
2022/12/13 11:42:57;;;;;;;;;28.33;25.33;;;;;4.08;45.70;100173.28;5051704;28;45316;-71
2022/12/13 11:45:54;;;;;;;;;34.50;34.50;;;;;4.09;45.76;100167.91;5042994;28;45330;-70
2022/12/13 11:48:38;;;;;;;;;44.00;38.67;;;;;4.08;46.05;100160.84;5052622;28;47114;-71
2022/12/13 11:51:07;;;;;;;;;34.50;32.00;;;;;4.11;45.76;100154.59;5046313;28;45550;-71
2022/12/13 11:53:48;;;;;;;;;40.50;30.75;;;;;4.08;45.42;100147.59;5054215;28;45378;-69
2022/12/13 11:56:29;;;;;;;;;37.50;36.75;;;;;4.04;44.99;100140.66;5053706;28;45834;-71
2022/12/13 11:59:00;;;;;;;;;35.00;29.25;;;;;3.97;44.96;100132.91;5035558;28;47812;-71
2022/12/13 12:01:36;;;;;;;;;26.25;24.50;;;;;3.75;45.58;100092.88;5054102;28;45290;-71
2022/12/13 12:04:28;;;;;;;;;35.75;30.75;;;;;3.92;45.79;100124.22;5053720;28;45360;-71
2022/12/13 12:07:03;;;;;;;;;35.50;35.25;;;;;3.88;45.48;100109.31;5053600;28;45209;-70
2022/12/13 12:09:35;;;;;;;;;35.00;31.75;;;;;3.83;45.65;100108.59;5053590;28;46152;-69
2022/12/13 12:12:07;;;;;;;;;33.75;30.00;;;;;3.80;45.77;100121.00;5053233;28;45431;-70
2022/12/13 12:14:43;;;;;;;;;34.75;34.00;;;;;3.78;45.79;100125.47;5053982;28;45334;-71
2022/12/13 12:17:14;;;;;;;;;39.75;36.00;;;;;3.71;46.17;100110.66;5053386;28;45814;-70
2022/12/13 12:19:44;;;;;;;;;41.25;34.75;;;;;3.66;45.64;100115.22;5053837;28;46236;-69
2022/12/13 12:22:24;;;;;;;;;39.00;31.75;;;;;3.68;46.39;100115.16;5053276;28;45410;-71
2022/12/13 12:25:16;;;;;;;;;33.50;27.75;;;;;3.69;46.39;100112.47;5053692;28;45337;-71
2022/12/13 12:28:00;;;;;;;;;35.00;29.33;;;;;3.71;45.94;100100.06;5053231;28;45686;-70
2022/12/13 12:31:18;;;;;;;;;27.00;23.67;;;;;3.68;46.09;100091.31;5053825;28;46211;-72
2022/12/13 12:33:52;;;;;;;;;37.00;29.00;;;;;3.68;45.93;100075.41;5051830;28;45478;-71
2022/12/13 12:36:38;;;;;;;;;28.75;27.75;;;;;3.65;45.76;100088.78;5057021;28;45415;-69
2022/12/13 12:39:10;;;;;;;;;27.00;27.00;;;;;3.58;45.83;100071.28;5057224;28;45478;-69
2022/12/13 12:41:53;;;;;;;;;38.00;28.75;;;;;3.64;45.88;100064.03;5056346;28;46828;-69
2022/12/13 12:44:19;;;;;;;;;37.75;33.00;;;;;3.66;45.75;100051.59;5057187;28;45355;-71
2022/12/13 12:46:53;;;;;;;;;34.00;30.50;;;;;3.70;46.53;100040.00;5025630;28;45333;-69
2022/12/13 12:49:37;;;;;;;;;30.50;28.25;;;;;3.73;46.36;100028.44;5057249;28;45379;-71
2022/12/13 12:52:33;;;;;;;;;34.50;31.50;;;;;3.76;46.28;100033.66;5049639;28;45367;-70
2022/12/13 12:55:10;;;;;;;;;32.50;27.75;;;;;3.79;46.31;100028.25;5056987;28;45329;-71
2022/12/13 12:57:52;;;;;;;;;37.50;30.00;;;;;3.80;46.09;100014.97;5056503;28;45269;-70
2022/12/13 13:00:20;;;;;;;;;38.25;34.00;;;;;3.93;45.89;100025.19;5056645;28;45482;-71
2022/12/13 13:02:49;;;;;;;;;27.75;25.25;;;;;4.00;45.37;100032.03;5056240;28;46031;-69
2022/12/13 13:05:19;;;;;;;;;33.25;28.75;;;;;4.10;46.17;100020.22;5056575;28;45229;-69
2022/12/13 13:07:51;;;;;;;;;35.75;30.50;;;;;4.18;45.51;100018.22;5056566;28;45451;-71
2022/12/13 13:10:18;;;;;;;;;32.75;27.75;;;;;4.25;44.63;100005.63;5056292;28;45376;-70
2022/12/13 13:12:43;;;;;;;;;32.25;27.00;;;;;4.41;45.03;100006.88;5055865;28;46491;-69
2022/12/13 13:15:38;;;;;;;;;33.50;28.50;;;;;4.61;43.84;100007.06;5038099;28;45800;-69
2022/12/13 13:18:03;;;;;;;;;28.75;28.75;;;;;4.72;43.41;100002.28;5037951;28;45431;-71
2022/12/13 13:20:28;;;;;;;;;30.75;23.75;;;;;4.81;43.12;99985.16;5056151;28;45440;-70
2022/12/13 13:22:56;;;;;;;;;25.50;17.75;;;;;4.99;42.74;100002.25;5056139;28;45390;-70
2022/12/13 13:25:24;;;;;;;;;38.25;27.50;;;;;4.97;42.93;99990.81;5056008;28;45602;-69
2022/12/13 13:27:58;;;;;;;;;38.50;29.00;;;;;5.18;43.13;100008.66;5037703;28;45332;-70
2022/12/13 13:30:25;;;;;;;;;26.25;25.00;;;;;5.23;43.00;99996.06;5055765;28;45233;-71
2022/12/13 13:32:55;;;;;;;;;28.25;27.00;;;;;5.30;42.33;100000.22;5055982;28;46533;-71
2022/12/13 13:35:32;;;;;;;;;27.25;24.50;;;;;5.34;42.23;99996.56;5056237;28;45280;-71
2022/12/13 13:37:59;;;;;;;;;27.50;22.75;;;;;5.36;42.17;99986.72;5042494;28;45255;-71
2022/12/13 13:40:33;;;;;;;;;29.50;25.75;;;;;5.32;42.04;99971.81;5037920;28;46088;-71
2022/12/13 13:43:05;;;;;;;;;29.25;26.00;;;;;5.41;42.38;99981.25;5054096;28;46070;-69
2022/12/13 13:45:50;;;;;;;;;28.75;23.75;;;;;5.43;41.88;99974.94;5055909;28;45458;-71
2022/12/13 13:48:39;;;;;;;;;28.00;24.25;;;;;5.51;41.10;99990.63;5041804;28;45365;-70
2022/12/13 13:51:45;;;;;;;;;29.75;22.25;;;;;5.53;41.39;99984.28;5048045;28;45350;-70
2022/12/13 13:54:52;;;;;;;;;27.00;24.50;;;;;5.62;41.43;99977.75;5055803;28;46417;-70
2022/12/13 13:57:56;;;;;;;;;24.25;22.25;;;;;5.62;41.08;99968.00;5056221;28;45383;-71
2022/12/13 14:01:15;;;;;;;;;23.75;23.25;;;;;5.75;41.28;99975.53;5056300;28;45261;-70
2022/12/13 14:03:46;;;;;;;;;25.75;23.75;;;;;5.80;41.54;99981.50;5039935;28;45689;-70
2022/12/13 14:06:40;;;;;;;;;26.00;23.75;;;;;5.77;41.08;99986.97;5055527;28;45559;-70
2022/12/13 14:09:27;;;;;;;;;24.25;22.50;;;;;5.79;41.21;99985.97;5055455;28;45356;-70
2022/12/13 14:12:14;;;;;;;;;34.00;27.25;;;;;5.82;41.52;99980.53;5055151;28;45451;-70
2022/12/13 14:14:57;;;;;;;;;20.75;20.25;;;;;5.99;41.10;99993.22;5055592;28;45651;-70
2022/12/13 14:18:00;;;;;;;;;28.25;22.25;;;;;6.42;40.78;99995.91;5055144;28;45389;-71
2022/12/13 14:20:37;;;;;;;;;28.00;27.75;;;;;6.89;40.20;99986.88;5037268;28;45356;-69
2022/12/13 14:23:33;;;;;;;;;34.50;25.75;;;;;7.01;39.27;99973.84;5055568;28;45427;-71
2022/12/13 14:26:17;;;;;;;;;32.75;26.25;;;;;7.06;38.88;99977.19;5054496;28;45315;-70
2022/12/13 14:28:58;;;;;;;;;27.00;23.50;;;;;7.08;37.88;99937.13;5055110;28;46296;-70
2022/12/13 14:31:31;;;;;;;;;27.25;21.00;;;;;7.53;37.59;99956.41;5055106;28;45387;-70
2022/12/13 14:33:58;;;;;;;;;24.75;22.75;;;;;7.86;37.22;99935.28;5055343;28;45269;-71
2022/12/13 14:36:31;;;;;;;;;22.00;18.00;;;;;8.46;36.34;99959.97;5054973;28;45524;-71
2022/12/13 14:39:15;;;;;;;;;23.50;21.00;;;;;9.01;35.82;99959.84;5055248;28;45642;-70
2022/12/13 14:41:50;;;;;;;;;22.25;18.25;;;;;9.22;34.33;99971.22;5054476;28;45517;-71
2022/12/13 14:44:24;;;;;;;;;23.50;22.50;;;;;9.14;34.91;99971.63;5055116;28;45314;-69
2022/12/13 14:46:55;;;;;;;;;25.50;24.00;;;;;8.97;35.37;99974.31;5054992;28;45360;-71
2022/12/13 14:49:23;;;;;;;;;22.75;21.25;;;;;8.85;34.99;99972.25;5054613;28;46150;-71
2022/12/13 14:51:59;;;;;;;;;29.50;24.25;;;;;8.68;35.45;99978.44;5047305;28;45489;-72
2022/12/13 14:54:28;;;;;;;;;25.25;22.75;;;;;8.51;35.69;99981.97;5037658;28;45490;-71
2022/12/13 14:56:59;;;;;;;;;25.00;24.00;;;;;8.30;35.65;99978.53;5054556;28;45488;-70
2022/12/13 14:59:25;;;;;;;;;23.75;20.50;;;;;8.12;36.06;99970.53;5054590;28;46241;-71
2022/12/13 15:02:02;;;;;;;;;29.25;25.25;;;;;7.92;36.70;99984.81;5054984;28;45320;-72
2022/12/13 15:04:32;;;;;;;;;24.75;19.75;;;;;7.67;37.50;99987.75;5036720;28;45402;-70
2022/12/13 15:07:19;;;;;;;;;24.25;24.25;;;;;7.45;37.16;99997.69;5037011;28;45550;-70
2022/12/13 15:09:45;;;;;;;;;22.50;22.50;;;;;7.22;38.07;99994.25;5054587;28;45931;-69
2022/12/13 15:12:17;;;;;;;;;27.50;24.75;;;;;6.98;38.68;99981.09;5054054;28;45422;-71
2022/12/13 15:14:45;;;;;;;;;24.75;24.75;;;;;6.89;38.93;99981.53;5054822;28;45233;-71
2022/12/13 15:17:32;;;;;;;;;30.75;25.00;;;;;6.70;39.30;99984.97;5054211;28;46938;-71
2022/12/13 15:19:59;;;;;;;;;21.00;20.50;;;;;6.51;39.65;99973.34;5054290;28;45298;-69
2022/12/13 15:22:24;;;;;;;;;31.25;24.25;;;;;6.39;39.04;99976.50;5054941;28;45315;-70
2022/12/13 15:24:50;;;;;;;;;31.25;25.00;;;;;6.34;39.70;99992.69;5054469;28;45398;-70
2022/12/13 15:27:18;;;;;;;;;30.25;22.25;;;;;6.19;39.65;99984.44;5054090;28;45517;-69
2022/12/13 15:29:46;;;;;;;;;27.00;23.00;;;;;6.13;40.35;99977.56;5054004;28;46188;-71
2022/12/13 15:32:15;;;;;;;;;26.25;23.50;;;;;6.05;40.09;99975.22;5054438;28;45328;-71
2022/12/13 15:34:42;;;;;;;;;23.00;19.75;;;;;5.91;40.10;99960.72;5054061;28;45267;-73
2022/12/13 15:37:13;;;;;;;;;20.00;19.00;;;;;5.85;40.46;99969.78;5054281;28;45224;-71
2022/12/13 15:39:43;;;;;;;;;34.00;20.25;;;;;5.75;40.29;99960.44;5054051;28;45321;-70
2022/12/13 15:42:31;;;;;;;;;26.00;21.25;;;;;5.68;40.16;99961.59;5035357;28;45462;-71
2022/12/13 15:45:00;;;;;;;;;20.75;19.00;;;;;5.55;40.47;99949.69;5053800;28;45470;-70
2022/12/13 15:47:26;;;;;;;;;25.25;22.00;;;;;5.46;40.76;99937.59;5036114;28;45404;-74
2022/12/13 15:49:57;;;;;;;;;23.75;22.75;;;;;5.47;41.41;99942.00;5053640;28;45955;-70
2022/12/13 15:52:36;;;;;;;;;18.00;17.25;;;;;5.46;41.06;99950.03;5047095;28;45297;-72
2022/12/13 15:55:04;;;;;;;;;22.00;20.50;;;;;5.39;41.28;99949.41;5054129;28;45432;-70
2022/12/13 15:57:32;;;;;;;;;33.00;21.25;;;;;5.35;41.51;99942.47;5053348;28;45481;-71
2022/12/13 16:00:21;;;;;;;;;21.00;17.50;;;;;5.28;41.27;99954.22;5035882;28;47591;-71
2022/12/13 16:02:56;;;;;;;;;27.75;23.50;;;;;5.16;42.12;99941.41;5053866;28;45322;-71
2022/12/13 16:05:29;;;;;;;;;27.00;23.75;;;;;5.16;42.40;99952.91;5054421;28;45474;-71
2022/12/13 16:07:56;;;;;;;;;21.00;21.00;;;;;5.18;42.40;99952.88;5057705;28;45296;-70
2022/12/13 16:10:22;;;;;;;;;21.25;20.00;;;;;5.14;42.50;99956.53;5057272;28;45458;-70
2022/12/13 16:12:52;;;;;;;;;21.25;20.50;;;;;5.09;42.84;99948.75;5057092;28;45332;-70
2022/12/13 16:15:19;;;;;;;;;22.50;18.50;;;;;5.10;43.24;99949.63;5039592;28;45487;-71
2022/12/13 16:17:49;;;;;;;;;31.00;24.00;;;;;5.02;43.19;99943.72;5057308;28;45530;-70
2022/12/13 16:20:16;;;;;;;;;25.50;20.50;;;;;5.06;43.33;99953.28;5056649;28;46402;-70
2022/12/13 16:22:42;;;;;;;;;23.75;17.50;;;;;5.00;43.72;99951.72;5039600;28;45400;-71
2022/12/13 16:25:13;;;;;;;;;25.75;23.75;;;;;4.98;43.47;99961.53;5057354;28;45540;-71
2022/12/13 16:27:39;;;;;;;;;22.75;19.00;;;;;4.86;43.29;99938.94;5057101;28;45292;-70
2022/12/13 16:30:10;;;;;;;;;23.25;23.25;;;;;4.79;43.42;99936.53;5057284;28;45679;-72
2022/12/13 16:32:36;;;;;;;;;30.25;24.00;;;;;4.86;43.45;99941.59;5057529;28;45323;-71
2022/12/13 16:35:01;;;;;;;;;29.00;26.50;;;;;4.86;43.83;99930.97;5056786;28;45621;-70
2022/12/13 16:37:26;;;;;;;;;23.75;22.50;;;;;4.82;44.35;99920.50;5039580;28;45522;-69
2022/12/13 16:39:52;;;;;;;;;27.25;27.25;;;;;4.63;44.01;99899.06;5039459;28;47020;-71
2022/12/13 16:42:18;;;;;;;;;28.75;25.50;;;;;4.63;44.50;99891.09;5038996;28;45373;-69
2022/12/13 16:44:43;;;;;;;;;28.50;24.50;;;;;4.73;43.91;99912.88;5038428;28;45574;-69
2022/12/13 16:47:11;;;;;;;;;27.00;26.00;;;;;4.54;43.80;99894.06;5056799;28;45552;-70
2022/12/13 16:49:36;;;;;;;;;35.50;27.25;;;;;4.54;44.13;99907.34;5038609;28;47109;-70
2022/12/13 16:52:03;;;;;;;;;24.75;22.25;;;;;4.55;44.44;99911.72;5049243;28;45484;-71
2022/12/13 16:54:29;;;;;;;;;25.75;23.00;;;;;4.57;44.73;99920.50;5056725;28;45542;-70
2022/12/13 16:56:55;;;;;;;;;26.00;20.75;;;;;4.54;45.00;99915.31;5056283;28;45194;-70
2022/12/13 16:59:23;;;;;;;;;30.25;25.75;;;;;4.52;44.95;99918.00;5056797;28;45510;-70
2022/12/13 17:01:52;;;;;;;;;26.25;24.50;;;;;4.45;44.90;99912.97;5057078;28;45600;-71
2022/12/13 17:04:21;;;;;;;;;25.00;21.00;;;;;4.40;44.85;99910.47;5057485;28;45253;-71
2022/12/13 17:06:50;;;;;;;;;29.00;24.25;;;;;4.36;44.95;99911.47;5058047;28;45532;-71
2022/12/13 17:09:16;;;;;;;;;13.50;13.25;;;;;4.45;44.77;99928.88;5057338;28;45395;-70
2022/12/13 17:11:42;;;;;;;;;19.25;17.75;;;;;4.42;45.33;99937.81;5057913;28;45582;-70